Date,TemperatureHighF,TemperatureAvgF,TemperatureLowF,DewpointHighF,DewpointAvgF,DewpointLowF,HumidityHigh,HumidityAvg,HumidityLow,PressureMaxIn,PressureMinIn,WindSpeedMaxMPH,WindSpeedAvgMPH,GustSpeedMaxMPH,PrecipitationSumIn
2013-1-1,60.0,49.5,35.8,35.4,26.0,15.5,83,47,20,29.94,29.79,28,4,28,0.00
2013-1-2,68.0,54.2,42.2,33.1,24.3,15.6,55,33,18,29.81,29.72,30,3,30,0.00
2013-1-3,69.9,51.2,39.6,30.7,26.3,22.5,55,41,18,29.88,29.75,19,2,20,0.00
2013-1-4,66.8,49.0,38.6,31.4,25.2,20.1,55,42,18,29.96,29.85,11,1,11,0.00
2013-1-5,63.3,49.2,38.8,40.7,29.2,22.1,74,47,24,29.99,29.87,10,1,10,0.00
2013-1-6,53.3,46.2,39.1,44.1,40.8,35.8,93,82,62,29.88,29.72,21,2,22,0.02
2013-1-7,64.3,48.7,36.8,42.6,36.5,29.6,90,65,38,29.84,29.71,10,2,10,0.00
2013-1-8,77.0,57.8,44.4,49.5,36.9,27.5,61,47,26,29.81,29.72,10,1,10,0.00
2013-1-9,66.8,54.7,47.0,51.3,43.0,36.6,93,66,44,29.80,29.69,9,2,9,0.00
2013-1-10,55.7,47.9,38.8,45.4,33.8,19.7,88,61,25,29.80,29.60,35,5,39,0.02
2013-1-11,52.1,40.7,31.3,29.8,24.3,16.4,74,54,27,29.90,29.75,23,3,26,0.00
2013-1-12,54.3,41.4,32.4,27.6,23.9,21.0,71,52,29,29.86,29.77,16,2,18,0.00
2013-1-13,53.9,41.7,32.0,27.1,22.6,10.3,72,49,25,29.88,29.74,21,2,24,0.00
2013-1-14,51.4,40.2,28.0,17.9,12.3,6.4,51,33,20,30.06,29.85,27,4,27,0.00
2013-1-15,62.3,45.5,32.9,27.7,21.3,14.5,51,40,23,30.15,30.02,18,2,18,0.00
2013-1-16,71.8,53.3,40.4,36.1,29.4,24.7,56,42,23,30.06,29.84,18,2,18,0.00
2013-1-17,78.2,60.8,46.3,29.6,25.0,19.6,44,27,12,29.87,29.73,23,4,23,0.00
2013-1-18,76.3,59.8,48.7,28.5,22.8,16.7,35,25,15,29.83,29.72,24,3,25,0.00
2013-1-19,77.1,60.7,45.5,26.3,20.7,15.3,33,22,13,29.86,29.75,25,4,28,0.00
2013-1-20,78.1,61.9,47.0,28.3,19.5,13.2,30,20,10,29.83,29.69,22,4,22,0.00
2013-1-21,79.3,65.8,52.2,24.8,18.6,11.6,26,17,10,29.78,29.67,25,4,25,0.00
2013-1-22,78.5,62.2,51.5,31.6,22.3,12.9,32,22,12,29.77,29.67,20,2,20,0.00
2013-1-23,76.6,61.9,52.7,46.8,31.9,19.7,78,34,23,29.80,29.68,22,2,23,0.08
2013-1-24,59.8,55.3,50.6,55.7,52.6,46.8,96,91,77,29.86,29.76,22,3,23,0.79
2013-1-25,59.4,56.7,54.9,55.9,54.1,50.4,94,91,72,29.83,29.66,8,1,16,0.08
2013-1-26,67.0,57.2,52.6,58.0,53.6,51.1,96,88,67,29.67,29.56,12,2,13,0.11
2013-1-27,62.6,52.2,39.7,51.5,42.8,25.5,96,73,36,29.72,29.59,16,2,16,0.01
2013-1-28,57.3,46.7,37.3,37.5,31.0,24.5,71,55,41,29.89,29.71,13,3,13,0.00
2013-1-29,58.6,46.0,36.6,39.6,34.4,30.2,81,65,39,29.92,29.84,8,1,13,0.00
2013-1-30,69.2,52.0,40.0,45.3,39.3,34.8,84,64,38,30.02,29.91,13,2,13,0.00
2013-1-31,77.0,58.5,44.9,47.5,41.0,37.3,75,55,27,29.95,29.79,15,1,18,0.00
2013-2-1,75.9,58.6,49.5,50.5,43.5,38.6,70,58,31,29.87,29.79,18,1,18,0.00
2013-2-2,74.2,62.1,54.3,51.8,44.0,38.8,84,54,32,29.89,29.80,12,2,14,0.02
2013-2-3,72.6,58.3,49.2,49.6,45.3,40.4,79,64,39,29.84,29.68,12,1,12,0.00
2013-2-4,69.0,54.8,45.3,50.6,43.2,35.8,87,66,40,29.77,29.66,10,2,11,0.00
2013-2-5,59.6,50.1,41.6,51.1,46.1,38.7,95,86,72,29.77,29.67,18,2,18,0.00
2013-2-6,63.0,51.5,42.2,49.1,44.6,39.6,95,79,48,29.80,29.69,12,2,13,0.00
2013-2-7,58.9,47.5,38.1,46.8,41.3,35.2,92,80,55,29.83,29.66,15,2,15,0.01
2013-2-8,51.4,42.7,35.3,40.4,36.9,32.0,94,81,58,29.66,29.55,28,3,28,0.06
2013-2-9,56.7,43.0,33.0,39.1,33.7,30.4,94,73,42,29.79,29.63,20,2,20,0.01
2013-2-10,52.9,43.2,35.1,41.6,35.9,31.0,92,76,54,29.79,29.70,12,1,12,0.00
2013-2-11,61.4,46.4,34.8,38.0,31.7,23.2,92,62,25,29.94,29.76,16,2,18,0.00
2013-2-12,62.7,48.2,37.8,38.5,30.2,22.4,72,52,23,30.04,29.92,14,2,14,0.00
2013-2-13,69.9,50.9,40.1,46.1,36.5,29.6,83,61,26,29.96,29.83,13,1,13,0.00
2013-2-14,77.5,57.6,43.2,44.1,35.2,30.5,71,46,20,29.89,29.74,23,3,23,0.00
2013-2-15,79.7,70.7,62.3,33.4,28.4,19.5,30,21,16,29.87,29.79,26,5,29,0.00
2013-2-16,79.1,64.7,49.4,32.7,26.3,19.6,38,24,14,29.84,29.65,18,2,18,0.00
2013-2-17,66.3,54.1,44.0,49.6,36.5,23.3,92,55,29,29.70,29.59,13,2,13,0.00
2013-2-18,61.4,51.4,45.0,47.4,44.7,41.4,91,79,57,29.74,29.62,19,2,19,0.00
2013-2-19,52.6,47.5,39.9,45.4,42.1,35.2,90,82,66,29.66,29.39,22,3,22,0.09
2013-2-20,59.5,45.0,33.3,37.5,31.5,25.7,88,61,39,29.69,29.40,14,3,14,0.00
2013-2-21,58.2,45.8,35.0,41.5,32.6,26.1,74,61,39,29.81,29.67,21,2,21,0.00
2013-2-22,63.0,48.5,36.2,39.9,32.8,26.0,83,57,30,29.89,29.80,15,2,16,0.00
2013-2-23,62.9,50.3,39.9,48.6,37.0,29.4,78,61,40,29.86,29.59,14,2,14,0.00
2013-2-24,66.0,53.5,43.2,31.6,23.8,16.7,54,33,17,29.90,29.69,26,5,26,0.00
2013-2-25,65.1,51.0,39.5,39.6,26.1,13.8,73,41,18,29.91,29.75,16,2,16,0.00
2013-2-26,72.3,55.2,39.2,37.0,28.9,19.8,65,39,19,29.82,29.67,21,2,23,0.00
2013-2-27,73.0,59.5,48.1,29.9,22.9,15.6,36,25,17,29.98,29.82,20,3,20,0.00
2013-2-28,79.2,60.3,45.4,37.6,27.0,19.8,38,29,16,30.02,29.91,13,2,14,0.00
2013-3-1,83.5,66.2,51.6,35.8,29.5,23.5,35,26,15,30.00,29.83,30,4,30,0.00
2013-3-2,82.0,66.4,54.9,42.6,32.8,26.6,63,30,18,29.89,29.75,14,2,16,0.00
2013-3-3,68.0,57.9,47.8,51.5,44.5,31.1,92,63,31,29.80,29.64,15,2,15,0.00
2013-3-4,65.0,52.7,43.1,50.9,46.1,40.7,94,80,56,29.78,29.68,14,2,15,0.00
2013-3-5,61.7,51.6,44.2,49.9,46.3,41.1,93,83,63,29.81,29.71,15,2,15,0.00
2013-3-6,54.1,49.5,41.9,47.3,44.7,39.5,93,84,65,29.83,29.69,11,1,11,0.00
2013-3-7,57.7,50.6,45.4,46.7,43.6,39.1,92,78,53,29.70,29.51,18,2,22,0.36
2013-3-8,55.0,47.4,41.1,45.7,42.5,38.9,94,83,68,29.70,29.45,19,3,19,0.57
2013-3-9,64.1,51.1,38.8,45.8,39.8,33.9,93,68,38,29.91,29.70,16,2,16,0.00
2013-3-10,74.5,57.2,41.3,42.8,36.1,31.0,73,49,22,29.98,29.83,13,2,14,0.00
2013-3-11,73.7,58.1,45.9,45.1,38.3,31.6,72,49,24,29.87,29.73,13,2,14,0.00
2013-3-12,78.1,61.2,48.0,50.3,42.7,36.8,70,53,29,29.78,29.69,11,2,11,0.00
2013-3-13,87.5,66.6,53.5,51.9,42.4,33.5,67,43,21,29.79,29.70,16,2,16,0.00
2013-3-14,80.5,65.6,54.1,54.2,44.9,36.7,70,48,29,29.76,29.68,12,2,12,0.00
2013-3-15,76.1,61.4,52.3,54.9,48.0,41.2,86,62,45,29.70,29.61,14,2,16,0.00
2013-3-16,65.8,54.0,44.5,54.7,48.8,42.9,96,83,66,29.66,29.55,13,2,13,0.00
2013-3-17,71.3,54.9,44.8,54.0,47.7,40.8,94,79,46,29.69,29.59,12,2,13,0.00
2013-3-18,62.0,51.9,44.5,52.0,47.3,42.3,95,85,68,29.77,29.65,13,2,13,0.01
2013-3-19,69.2,55.4,45.5,54.0,49.4,43.5,94,81,57,29.80,29.71,14,2,14,0.00
2013-3-20,68.3,58.2,51.3,55.0,50.5,47.5,90,76,57,29.77,29.63,13,2,14,0.00
2013-3-21,71.1,59.1,49.2,51.8,48.0,40.0,85,68,44,29.64,29.47,14,2,16,0.00
2013-3-22,74.7,60.4,45.7,43.3,33.5,14.7,67,39,17,29.58,29.47,18,4,18,0.00
2013-3-23,71.1,56.2,43.6,52.3,36.0,17.7,87,50,20,29.69,29.57,14,2,15,0.00
2013-3-24,75.8,57.8,43.6,51.5,41.2,31.2,81,56,24,29.70,29.57,16,2,16,0.00
2013-3-25,71.8,58.7,47.8,52.6,41.6,33.8,73,54,32,29.65,29.57,12,2,12,0.00
2013-3-26,66.6,55.4,45.6,52.3,44.6,38.0,88,68,51,29.64,29.58,15,2,15,0.00
2013-3-27,65.8,54.0,45.6,53.1,48.0,43.1,93,81,60,29.73,29.60,20,2,20,0.00
2013-3-28,69.0,54.9,45.7,54.5,49.1,43.8,95,82,58,29.76,29.69,15,2,16,0.00
2013-3-29,73.7,58.2,47.9,56.2,50.1,42.6,92,76,53,29.79,29.70,13,2,13,0.00
2013-3-30,71.9,57.6,50.6,53.7,50.4,46.5,95,79,47,29.81,29.72,15,2,15,0.00
2013-3-31,63.4,56.0,50.3,56.7,52.3,47.4,95,88,74,29.80,29.72,14,2,15,0.07
2013-4-1,63.4,54.8,48.2,52.6,49.9,46.1,95,84,64,29.85,29.75,22,2,22,0.00
2013-4-2,68.3,56.3,45.4,54.4,49.1,43.5,95,78,57,29.78,29.67,15,3,16,0.01
2013-4-3,73.8,58.8,45.9,57.1,50.0,42.2,93,74,48,29.76,29.66,14,2,14,0.00
2013-4-4,70.1,57.7,51.2,57.1,52.6,49.3,96,84,62,29.79,29.67,16,3,18,0.00
2013-4-5,68.7,58.2,52.7,56.6,52.9,49.8,93,83,64,29.78,29.66,18,2,18,0.00
2013-4-6,70.6,59.2,49.5,56.2,51.8,47.1,94,78,57,29.78,29.62,16,3,18,0.00
2013-4-7,74.3,61.7,51.2,54.2,49.0,43.7,84,65,43,29.64,29.45,15,2,16,0.00
2013-4-8,67.4,57.8,49.1,48.4,38.7,29.8,90,54,28,29.51,29.32,40,6,41,0.00
2013-4-9,72.2,57.9,44.9,45.6,35.4,28.1,68,45,23,29.69,29.50,21,3,21,0.00
2013-4-10,79.3,65.5,51.5,40.6,32.0,24.5,54,30,17,29.79,29.65,21,4,21,0.00
2013-4-11,71.7,60.1,49.6,47.9,40.3,32.4,72,49,33,29.66,29.44,16,2,20,0.00
2013-4-12,69.2,55.8,45.5,54.5,48.3,41.7,90,77,59,29.55,29.46,15,2,15,0.00
2013-4-13,64.3,53.4,45.6,54.8,49.4,43.5,96,87,70,29.60,29.51,14,2,14,0.00
2013-4-14,57.1,53.9,52.3,52.7,51.2,50.0,95,91,82,29.57,29.50,10,1,10,0.05
2013-4-15,57.8,53.9,47.9,50.8,48.8,43.7,92,83,74,29.58,29.50,11,1,11,0.00
2013-4-16,65.5,54.4,44.5,43.8,36.1,21.5,92,56,20,29.70,29.54,30,4,30,0.00
2013-4-17,69.5,57.6,46.3,41.0,28.1,21.4,50,33,22,29.83,29.69,19,4,20,0.00
2013-4-18,76.5,63.0,48.4,29.7,25.1,17.5,40,25,16,29.89,29.80,27,5,27,0.00
2013-4-19,81.7,65.8,49.6,44.4,30.8,21.7,50,29,14,29.85,29.65,21,3,21,0.00
2013-4-20,87.8,68.0,55.0,54.9,42.7,30.3,62,41,19,29.67,29.55,14,2,14,0.00
2013-4-21,79.0,65.5,50.8,51.5,45.2,37.8,86,50,28,29.67,29.59,16,3,16,0.00
2013-4-22,69.6,56.8,47.7,55.2,50.0,43.9,95,79,56,29.68,29.56,15,3,15,0.00
2013-4-23,70.5,59.1,50.6,54.8,50.9,47.1,89,75,55,29.65,29.55,15,3,15,0.00
2013-4-24,59.0,55.0,50.5,53.9,51.8,47.3,93,89,80,29.68,29.57,12,1,12,0.00
2013-4-25,67.8,58.3,49.3,50.6,48.2,44.7,92,71,46,29.81,29.64,19,3,19,0.00
2013-4-26,72.2,58.7,45.9,52.8,48.0,42.5,90,70,47,29.83,29.77,15,2,15,0.00
2013-4-27,76.3,62.8,51.6,56.7,51.0,44.9,81,67,48,29.82,29.67,13,3,13,0.00
2013-4-28,74.3,59.1,46.8,58.3,51.9,44.8,95,79,56,29.68,29.53,13,3,13,0.00
2013-4-29,72.0,57.7,46.9,58.9,52.6,45.5,96,84,62,29.59,29.46,15,2,15,0.00
2013-4-30,65.2,57.5,51.8,55.7,52.9,48.6,95,85,68,29.57,29.49,14,2,14,0.00
2013-5-1,73.0,62.4,53.1,57.3,53.4,49.2,89,73,55,29.77,29.56,15,3,15,0.00
2013-5-2,91.8,74.0,50.0,50.7,30.4,17.2,95,31,7,29.79,29.68,28,4,28,0.00
2013-5-3,92.0,74.7,57.9,42.4,29.0,18.0,30,19,10,29.71,29.43,22,3,23,0.00
2013-5-4,75.0,63.4,55.1,56.2,45.1,30.0,87,54,29,29.50,29.39,20,3,20,0.00
2013-5-5,63.1,58.0,53.9,51.9,49.8,47.1,87,74,59,29.61,29.49,19,4,20,0.00
2013-5-6,63.4,57.2,53.9,54.2,51.5,46.8,95,82,60,29.70,29.55,16,2,16,0.12
2013-5-7,67.0,58.4,51.6,52.8,49.7,45.8,89,74,53,29.74,29.66,19,2,19,0.00
2013-5-8,66.7,57.2,47.3,53.1,48.8,44.8,96,75,56,29.78,29.73,21,3,21,0.00
2013-5-9,70.3,58.9,47.9,55.4,50.5,45.1,92,75,57,29.78,29.69,19,3,19,0.00
2013-5-10,79.0,63.8,51.7,59.7,54.3,48.5,91,73,47,29.78,29.67,14,3,15,0.00
2013-5-11,81.0,67.0,53.4,61.5,56.3,50.4,92,71,49,29.74,29.66,13,3,13,0.00
2013-5-12,91.8,76.3,60.1,62.4,55.5,48.6,74,50,30,29.72,29.58,14,2,14,0.00
2013-5-13,91.8,77.7,57.0,61.0,51.5,42.5,85,42,21,29.63,29.54,18,3,18,0.00
2013-5-14,75.5,61.6,50.9,57.2,51.5,43.9,94,71,48,29.67,29.55,14,2,16,0.00
2013-5-15,69.5,59.9,50.7,56.9,51.5,46.8,89,75,58,29.71,29.61,16,3,18,0.00
2013-5-16,68.5,58.2,49.6,56.9,51.4,46.6,93,79,64,29.66,29.57,20,2,20,0.00
2013-5-17,69.3,60.2,51.4,56.8,52.2,48.4,90,76,60,29.67,29.58,20,3,20,0.00
2013-5-18,71.5,61.4,50.1,55.8,50.8,46.8,91,70,48,29.71,29.64,19,2,19,0.00
2013-5-19,77.2,64.0,49.4,55.8,50.7,44.1,85,64,41,29.66,29.53,16,3,16,0.00
2013-5-20,80.7,66.8,53.5,59.9,53.0,42.8,84,62,45,29.62,29.55,13,2,14,0.00
2013-5-21,76.2,64.0,54.0,61.1,54.8,46.6,87,73,58,29.61,29.49,14,3,15,0.00
2013-5-22,70.6,60.7,51.8,56.2,51.8,46.4,91,73,57,29.51,29.44,20,3,21,0.00
2013-5-23,66.3,57.8,49.4,52.8,48.5,44.5,86,72,49,29.62,29.50,19,3,19,0.00
2013-5-24,68.3,58.3,48.6,54.2,48.5,43.5,85,71,57,29.66,29.58,19,3,21,0.00
2013-5-25,68.0,58.2,48.0,54.3,48.8,44.2,88,72,55,29.70,29.63,20,3,20,0.00
2013-5-26,69.7,59.0,48.0,54.4,49.7,44.7,92,73,57,29.71,29.66,20,3,20,0.00
2013-5-27,74.7,62.6,50.3,56.9,52.2,46.4,88,70,50,29.68,29.51,18,3,18,0.00
2013-5-28,78.7,66.4,54.6,58.6,54.0,47.7,83,66,47,29.54,29.40,15,3,16,0.00
2013-5-29,80.6,68.1,56.0,57.7,53.7,46.4,81,62,39,29.48,29.37,15,3,15,0.00
2013-5-30,76.7,65.6,53.4,58.2,53.7,48.8,88,67,48,29.54,29.42,16,3,16,0.00
2013-5-31,75.7,64.4,52.4,61.3,55.3,49.2,94,74,58,29.59,29.48,16,3,16,0.00
2013-6-1,84.9,67.0,54.6,64.0,57.5,52.0,95,74,49,29.53,29.39,14,3,14,0.00
2013-6-2,73.8,61.9,54.1,62.5,57.1,52.1,95,85,66,29.49,29.43,18,3,18,0.00
2013-6-3,73.3,63.4,55.2,59.8,56.8,51.6,94,80,60,29.58,29.46,18,3,18,0.00
2013-6-4,71.5,62.0,53.4,59.3,55.4,49.9,93,80,63,29.65,29.55,19,3,19,0.00
2013-6-5,70.8,59.2,49.8,57.8,53.1,47.6,94,81,63,29.69,29.60,18,3,18,0.00
2013-6-6,71.8,59.6,51.5,58.8,54.1,49.0,95,83,63,29.62,29.55,15,3,15,0.00
2013-6-7,73.4,61.4,53.9,59.8,55.8,51.4,95,83,62,29.59,29.46,15,3,16,0.00
2013-6-8,73.4,62.3,56.7,61.4,57.0,54.1,94,83,65,29.58,29.45,16,3,16,0.00
2013-6-9,72.2,62.2,57.5,61.4,57.0,53.7,93,84,68,29.59,29.54,16,3,16,0.00
2013-6-10,73.1,63.5,56.4,57.0,55.0,52.8,91,75,55,29.63,29.56,19,3,19,0.00
2013-6-11,80.0,66.3,54.0,61.1,55.9,50.7,91,71,47,29.62,29.56,15,3,15,0.00
2013-6-12,73.2,61.4,54.6,60.8,56.7,53.0,96,85,63,29.69,29.59,16,3,16,0.00
2013-6-13,71.9,63.8,58.3,61.1,57.4,53.6,91,80,68,29.69,29.57,16,3,16,0.00
2013-6-14,73.3,63.0,53.0,60.8,56.3,50.0,92,80,64,29.59,29.50,16,3,16,0.00
2013-6-15,71.5,62.6,55.4,59.3,56.7,52.4,93,82,64,29.65,29.55,20,3,20,0.00
2013-6-16,75.0,61.7,53.1,60.4,55.6,51.5,96,82,59,29.72,29.62,16,3,16,0.00
2013-6-17,77.7,64.6,53.4,61.8,55.9,48.6,88,74,53,29.66,29.54,13,3,15,0.00
2013-6-18,74.5,64.5,54.3,58.9,55.5,51.4,91,74,55,29.59,29.49,19,3,19,0.00
2013-6-19,81.2,67.1,53.8,56.2,51.8,42.5,89,61,35,29.55,29.44,18,3,18,0.00
2013-6-20,78.0,66.8,53.5,56.9,48.2,35.7,71,52,35,29.52,29.47,16,3,16,0.00
2013-6-21,77.7,66.8,54.6,56.8,51.7,46.4,76,59,45,29.57,29.50,18,3,19,0.00
2013-6-22,74.3,64.8,54.5,60.3,54.4,46.7,84,69,54,29.58,29.49,18,3,18,0.00
2013-6-23,69.3,61.1,53.7,59.6,55.0,50.4,92,81,69,29.56,29.47,16,3,18,0.00
2013-6-24,68.3,61.8,54.6,58.6,55.6,51.4,91,80,69,29.62,29.48,12,2,14,0.00
2013-6-25,73.0,64.5,53.7,61.2,57.4,51.7,94,79,64,29.66,29.57,18,3,18,0.00
2013-6-26,83.0,71.3,59.4,64.1,59.8,55.4,88,69,50,29.65,29.58,16,3,16,0.00
2013-6-27,87.4,75.3,63.8,66.5,61.4,57.2,80,63,46,29.68,29.62,18,3,18,0.00
2013-6-28,88.1,75.2,60.9,65.0,61.0,56.7,87,63,43,29.65,29.53,13,3,14,0.00
2013-6-29,91.7,79.0,66.8,65.4,61.6,56.7,76,57,40,29.54,29.40,16,3,16,0.00
2013-6-30,93.8,80.0,67.0,65.2,60.5,52.4,85,53,36,29.47,29.36,19,3,19,0.00
2013-7-1,90.0,74.4,62.6,67.0,62.9,59.2,91,69,45,29.55,29.45,12,3,13,0.00
2013-7-2,83.7,72.3,63.6,66.2,61.8,57.9,87,71,50,29.66,29.53,12,3,18,0.00
2013-7-3,84.8,68.1,59.1,64.5,60.4,57.0,94,78,46,29.58,29.45,20,3,20,0.00
2013-7-4,79.8,67.9,58.2,64.8,60.6,56.4,96,79,59,29.50,29.41,14,3,14,0.00
2013-7-5,78.5,67.0,60.5,64.4,60.8,58.2,93,81,62,29.52,29.43,15,2,16,0.00
2013-7-6,78.4,66.3,59.0,65.5,60.8,56.1,96,84,62,29.50,29.41,12,3,15,0.00
2013-7-7,80.2,66.1,56.2,63.9,59.3,54.9,97,81,55,29.53,29.44,16,3,16,0.00
2013-7-8,85.5,69.3,56.2,63.2,58.6,53.2,92,71,43,29.59,29.52,12,3,14,0.00
2013-7-9,89.5,74.2,63.7,62.5,55.2,46.1,75,52,37,29.65,29.57,14,2,15,0.00
2013-7-10,84.0,69.6,60.0,64.0,58.8,52.6,82,69,48,29.66,29.55,16,2,18,0.00
2013-7-11,78.2,70.0,63.1,66.0,62.3,59.5,89,77,64,29.64,29.55,16,2,16,0.00
2013-7-12,79.6,67.8,59.0,65.8,59.9,53.7,94,78,47,29.60,29.53,13,3,14,0.00
2013-7-13,81.6,66.4,55.4,62.3,58.0,52.2,96,76,47,29.63,29.52,13,3,14,0.00
2013-7-14,83.8,69.6,57.0,62.8,58.3,53.6,91,70,43,29.61,29.47,13,3,14,0.00
2013-7-15,79.8,67.6,57.1,60.3,56.5,52.7,87,70,45,29.55,29.48,15,3,16,0.00
2013-7-16,82.3,66.5,52.3,57.3,52.2,42.0,89,64,29,29.65,29.53,16,3,16,0.00
2013-7-17,83.8,69.0,56.0,58.3,50.9,38.1,78,56,24,29.70,29.62,16,3,18,0.00
2013-7-18,81.3,67.5,55.1,59.1,54.5,47.5,79,65,42,29.65,29.53,13,3,13,0.00
2013-7-19,80.3,66.5,56.1,59.3,55.4,51.1,86,69,47,29.58,29.49,14,3,14,0.00
2013-7-20,79.8,66.3,55.6,63.4,57.9,51.8,91,75,56,29.57,29.43,16,3,16,0.00
2013-7-21,74.0,66.2,61.5,64.4,60.7,57.9,91,83,70,29.60,29.46,14,3,14,0.00
2013-7-22,79.5,68.8,61.7,65.9,61.8,58.7,96,80,57,29.65,29.57,16,3,16,0.01
2013-7-23,79.6,65.0,59.4,63.1,59.6,57.3,95,84,53,29.69,29.64,16,3,16,0.00